createdAt,value
2022-10-02T00:05:09.867Z,21.4
2022-10-02T00:10:36.725Z,21.4
2022-10-02T00:16:14.801Z,21.4
2022-10-02T00:21:52.412Z,21.4
2022-10-02T00:27:28.983Z,21.4
2022-10-02T00:32:52.244Z,21.4
2022-10-02T00:38:13.942Z,21.4
2022-10-02T00:43:50.571Z,21.4
2022-10-02T00:49:27.134Z,21.4
2022-10-02T00:55:03.926Z,21.4
2022-10-02T01:00:25.109Z,21.4
2022-10-02T01:06:02.409Z,21.4
2022-10-02T01:11:24.482Z,21.4
2022-10-02T01:16:46.125Z,21.4
2022-10-02T01:22:23.317Z,21.4
2022-10-02T01:28:00.674Z,21.3
2022-10-02T01:33:22.538Z,21.3
2022-10-02T01:38:59.101Z,21.4
2022-10-02T01:44:20.657Z,21.3
2022-10-02T01:49:58.657Z,21.3
2022-10-02T01:55:36.336Z,21.3
2022-10-02T02:01:13.516Z,21.3
2022-10-02T02:06:52.247Z,21.3
2022-10-02T02:12:29.410Z,21.3
2022-10-02T02:17:51.426Z,21.4
2022-10-02T02:23:13.157Z,21.3
2022-10-02T02:28:36.284Z,21.3
2022-10-02T02:34:13.279Z,21.3
2022-10-02T02:39:49.537Z,21.3
2022-10-02T02:45:29.751Z,21.3
2022-10-02T02:51:07.299Z,21.3
2022-10-02T02:56:50.956Z,21.3
2022-10-02T03:02:28.785Z,21.3
2022-10-02T03:08:06.453Z,21.3
2022-10-02T03:13:43.268Z,21.3
2022-10-02T03:19:21.045Z,21.3
2022-10-02T03:24:58.618Z,21.3
2022-10-02T03:31:04.394Z,21.3
2022-10-02T03:36:41.690Z,21.3
2022-10-02T03:42:48.344Z,21.2
2022-10-02T03:48:50.041Z,21.2
2022-10-02T03:54:14.287Z,21.2
2022-10-02T03:59:35.796Z,21.2
2022-10-02T04:04:57.652Z,21.2
2022-10-02T04:40:52.515Z,21.1
2022-10-02T04:46:30.462Z,21.1
2022-10-02T04:52:06.547Z,21.1
2022-10-02T04:57:43.847Z,21.1
2022-10-02T05:03:07.329Z,21.1
2022-10-02T05:08:45.699Z,21.1
2022-10-02T05:14:27.724Z,21.1
2022-10-02T05:25:28.121Z,21.1
2022-10-02T05:56:17.247Z,21.2
2022-10-02T06:01:39.994Z,21.2
2022-10-02T06:11:56.851Z,21.2
2022-10-02T06:17:37.855Z,21.2
2022-10-02T06:23:04.551Z,21.2
2022-10-02T06:28:41.546Z,21.2
2022-10-02T06:39:32.091Z,21.2
2022-10-02T07:05:23.677Z,21.2
2022-10-02T07:10:46.522Z,21.2
2022-10-02T07:16:23.915Z,21.2
2022-10-02T07:21:48.897Z,21.2
2022-10-02T07:27:39.812Z,21.2
2022-10-02T07:33:02.575Z,21.2
2022-10-02T07:38:46.336Z,21.3
2022-10-02T07:44:24.357Z,21.3
2022-10-02T07:50:02.366Z,21.3
2022-10-02T07:55:46.058Z,21.3
2022-10-02T08:01:24.061Z,21.3
2022-10-02T08:07:07.601Z,21.3
2022-10-02T08:12:44.613Z,21.3
2022-10-02T08:18:49.655Z,21.3
2022-10-02T08:24:11.068Z,21.3
2022-10-02T08:29:54.233Z,21.3
2022-10-02T08:35:37.325Z,21.3
2022-10-02T08:40:58.668Z,21.3
2022-10-02T08:46:36.263Z,21.3
2022-10-02T08:52:14.031Z,21.3
2022-10-02T08:57:39.350Z,21.2
2022-10-02T09:03:05.709Z,21.3
2022-10-02T09:13:09.337Z,21.2
2022-10-02T09:34:44.293Z,21.1
2022-10-02T09:40:21.567Z,21.1
2022-10-02T09:45:58.998Z,21.1
2022-10-02T09:51:36.792Z,21
2022-10-02T09:57:14.609Z,21
2022-10-02T10:02:57.842Z,21.1
2022-10-02T10:08:59.294Z,21
2022-10-02T10:14:37.303Z,21.1
2022-10-02T10:20:14.809Z,21
2022-10-02T10:25:56.219Z,21.1
2022-10-02T10:31:34.626Z,21.1
2022-10-02T10:48:23.146Z,21.2
2022-10-02T10:55:36.644Z,21.2
2022-10-02T11:01:03.608Z,21.2
2022-10-02T11:06:26.178Z,21.3
2022-10-02T11:11:47.727Z,21.3
2022-10-02T11:17:10.520Z,21.3
2022-10-02T11:22:32.831Z,21.3
2022-10-02T11:28:14.803Z,21.4
2022-10-02T11:33:53.210Z,21.3
2022-10-02T11:39:30.797Z,21.3
2022-10-02T11:45:07.596Z,21.3
2022-10-02T11:50:45.555Z,21.3
2022-10-02T11:56:25.177Z,21.3
2022-10-02T12:02:02.826Z,21.3
2022-10-02T12:07:41.026Z,21.3
2022-10-02T12:13:19.607Z,21.3
2022-10-02T12:18:57.167Z,21.3
2022-10-02T12:24:18.974Z,21.3
2022-10-02T12:29:57.098Z,21.3
2022-10-02T12:35:36.894Z,21.3
2022-10-02T12:41:18.080Z,21.4
2022-10-02T12:46:41.298Z,21.3
2022-10-02T12:52:18.690Z,21.4
2022-10-02T12:57:55.738Z,21.4
2022-10-02T13:04:02.147Z,21.4
2022-10-02T13:09:41.305Z,21.4
2022-10-02T13:15:03.075Z,21.4
2022-10-02T13:20:45.932Z,21.4
2022-10-02T13:26:28.158Z,21.4
2022-10-02T13:32:08.604Z,21.4
2022-10-02T13:37:46.750Z,21.4
2022-10-02T13:43:24.830Z,21.4
2022-10-02T13:49:02.192Z,21.4
2022-10-02T13:54:43.729Z,21.5
2022-10-02T14:00:25.188Z,21.5
2022-10-02T14:06:03.390Z,21.5
2022-10-02T14:11:40.928Z,21.5
2022-10-02T14:17:22.809Z,21.5
2022-10-02T14:23:00.076Z,21.5
2022-10-02T14:28:37.985Z,21.6
2022-10-02T14:34:15.281Z,21.5
2022-10-02T14:39:53.436Z,21.6
2022-10-02T14:45:32.228Z,21.6
2022-10-02T14:51:09.635Z,21.6
2022-10-02T14:56:47.285Z,21.6
2022-10-02T15:25:05.954Z,21.6
2022-10-02T15:31:07.465Z,21.7
2022-10-02T15:36:47.296Z,21.7
2022-10-02T15:42:27.817Z,21.7
2022-10-02T15:48:06.116Z,21.8
2022-10-02T15:53:43.392Z,21.7
2022-10-02T15:59:26.479Z,21.7
2022-10-02T16:05:04.633Z,21.7
2022-10-02T16:10:41.118Z,21.7
2022-10-02T16:16:20.006Z,21.7
2022-10-02T16:21:58.385Z,21.8
2022-10-02T16:28:53.930Z,21.7
2022-10-02T16:34:01.582Z,21.7
2022-10-02T16:39:39.603Z,21.7
2022-10-02T16:45:18.679Z,21.6
2022-10-02T16:50:42.430Z,21.7
2022-10-02T16:56:19.724Z,21.6
2022-10-02T17:02:29.174Z,21.7
2022-10-02T17:07:51.666Z,21.6
2022-10-02T17:13:28.685Z,21.6
2022-10-02T17:19:08.240Z,21.6
2022-10-02T17:24:46.619Z,21.6
2022-10-02T17:30:28.109Z,21.6
2022-10-02T17:36:10.565Z,21.6
2022-10-02T17:41:49.181Z,21.6
2022-10-02T17:47:31.772Z,21.6
2022-10-02T17:53:43.334Z,21.6
2022-10-02T17:59:21.003Z,21.7
2022-10-02T18:05:03.173Z,21.6
2022-10-02T18:10:26.962Z,21.6
2022-10-02T18:15:55.956Z,21.7
2022-10-02T18:21:02.399Z,21.7
2022-10-02T18:26:24.169Z,21.6
2022-10-02T18:32:27.771Z,21.7
2022-10-02T18:37:48.291Z,21.7
2022-10-02T18:43:26.161Z,21.7
2022-10-02T18:48:52.666Z,21.6
2022-10-02T18:54:29.679Z,21.7
2022-10-02T19:00:12.100Z,21.7
2022-10-02T19:05:35.942Z,21.7
2022-10-02T19:11:13.366Z,21.7
2022-10-02T19:16:54.491Z,21.7
2022-10-02T19:22:32.901Z,21.7
2022-10-02T19:27:54.934Z,21.6
2022-10-02T19:33:32.720Z,21.6
2022-10-02T19:38:55.310Z,21.7
2022-10-02T19:44:39.610Z,21.6
2022-10-02T19:50:21.665Z,21.7
2022-10-02T19:56:05.131Z,21.7
2022-10-02T20:01:28.611Z,21.6
2022-10-02T20:07:06.139Z,21.6
2022-10-02T20:12:17.467Z,21.7
2022-10-02T20:17:58.039Z,21.7
2022-10-02T20:23:34.642Z,21.8
2022-10-02T20:29:13.032Z,21.8
